createdAt,value
2023-01-19T00:00:39.097Z,991.2
2023-01-19T00:04:39.578Z,991.2
2023-01-19T00:07:39.096Z,991.3
2023-01-19T00:10:47.461Z,991.2
2023-01-19T00:14:39.361Z,991.3
2023-01-19T00:17:39.163Z,991.2
2023-01-19T00:22:45.780Z,991.3
2023-01-19T00:25:39.088Z,991.3
2023-01-19T00:27:39.088Z,991.3
2023-01-19T00:30:45.921Z,991.3
2023-01-19T00:33:39.112Z,991.3
2023-01-19T00:35:39.945Z,991.3
2023-01-19T00:38:40.003Z,991.4
2023-01-19T00:41:39.533Z,991.4
2023-01-19T00:44:39.094Z,991.5
2023-01-19T00:46:39.518Z,991.5
2023-01-19T00:49:39.066Z,991.5
2023-01-19T00:51:39.136Z,991.5
2023-01-19T00:54:39.062Z,991.5
2023-01-19T00:56:39.196Z,991.5
2023-01-19T00:59:39.051Z,991.5
2023-01-19T01:01:44.923Z,991.5
2023-01-19T01:04:39.096Z,991.6
2023-01-19T01:06:39.203Z,991.6
2023-01-19T01:09:39.752Z,991.6
2023-01-19T01:12:39.673Z,991.5
2023-01-19T01:15:39.049Z,991.5
2023-01-19T01:17:39.396Z,991.5
2023-01-19T01:20:39.045Z,991.6
2023-01-19T01:23:39.398Z,991.5
2023-01-19T01:26:39.082Z,991.6
2023-01-19T01:29:39.068Z,991.6
2023-01-19T01:32:39.267Z,991.6
2023-01-19T01:35:39.626Z,991.6
2023-01-19T01:38:39.205Z,991.5
2023-01-19T01:41:39.625Z,991.6
2023-01-19T01:43:39.853Z,991.6
2023-01-19T01:47:39.062Z,991.6
2023-01-19T01:49:39.074Z,991.6
2023-01-19T01:51:39.068Z,991.6
2023-01-19T01:53:39.118Z,991.6
2023-01-19T01:56:39.725Z,991.7
2023-01-19T01:59:39.762Z,991.6
2023-01-19T02:02:39.321Z,991.7
2023-01-19T02:05:39.322Z,991.7
2023-01-19T02:08:39.177Z,991.7
2023-01-19T02:11:39.054Z,991.7
2023-01-19T02:14:39.026Z,991.7
2023-01-19T02:16:39.133Z,991.7
2023-01-19T02:19:39.351Z,991.6
2023-01-19T02:22:39.075Z,991.6
2023-01-19T02:25:39.040Z,991.5
2023-01-19T02:27:39.055Z,991.6
2023-01-19T02:29:39.262Z,991.6
2023-01-19T02:33:39.172Z,991.7
2023-01-19T02:35:39.564Z,991.6
2023-01-19T02:38:39.068Z,991.6
2023-01-19T02:41:39.033Z,991.6
2023-01-19T02:43:39.063Z,991.7
2023-01-19T02:45:39.195Z,991.7
2023-01-19T02:47:39.330Z,991.7
2023-01-19T02:50:39.341Z,991.7
2023-01-19T02:53:39.046Z,991.7
2023-01-19T02:56:39.578Z,991.7
2023-01-19T02:59:39.016Z,991.6
2023-01-19T03:01:39.704Z,991.6
2023-01-19T03:03:39.826Z,991.6
2023-01-19T03:06:39.031Z,991.5
2023-01-19T03:08:39.114Z,991.5
2023-01-19T03:11:39.536Z,991.5
2023-01-19T03:14:39.458Z,991.5
2023-01-19T03:16:40.040Z,991.4
2023-01-19T03:20:46.293Z,991.5
2023-01-19T03:22:46.340Z,991.6
2023-01-19T03:25:39.730Z,991.6
2023-01-19T03:28:39.090Z,991.6
2023-01-19T03:30:39.104Z,991.6
2023-01-19T03:32:39.152Z,991.6
2023-01-19T03:34:39.293Z,991.5
2023-01-19T03:37:39.099Z,991.5
2023-01-19T03:40:39.051Z,991.6
2023-01-19T03:42:39.595Z,991.5
2023-01-19T03:44:39.905Z,991.6
2023-01-19T03:47:39.034Z,991.5
2023-01-19T03:51:39.017Z,991.5
2023-01-19T03:53:39.187Z,991.6
2023-01-19T03:56:45.637Z,991.7
2023-01-19T03:58:46.204Z,991.7
2023-01-19T04:01:39.703Z,991.7
2023-01-19T04:04:39.083Z,991.8
2023-01-19T04:06:45.664Z,991.9
2023-01-19T04:09:39.124Z,991.9
2023-01-19T04:12:39.163Z,992
2023-01-19T04:14:39.948Z,992
2023-01-19T04:17:39.112Z,992
2023-01-19T04:20:39.428Z,992
2023-01-19T04:22:39.940Z,992.1
2023-01-19T04:24:40.009Z,992.1
2023-01-19T04:28:39.040Z,992
2023-01-19T04:30:40.511Z,992.1
2023-01-19T04:33:40.121Z,992
2023-01-19T04:35:39.241Z,992
2023-01-19T04:40:38.725Z,992
2023-01-19T04:43:39.033Z,992
2023-01-19T04:45:45.628Z,992
2023-01-19T04:48:59.526Z,992.1
2023-01-19T04:51:45.668Z,992
2023-01-19T04:55:39.781Z,992
2023-01-19T04:59:39.028Z,992
2023-01-19T05:01:45.654Z,992
2023-01-19T05:04:39.021Z,992.1
2023-01-19T05:06:39.745Z,992
2023-01-19T05:10:39.034Z,992.1
2023-01-19T05:12:45.809Z,992.1
2023-01-19T05:15:44.799Z,992
2023-01-19T05:17:52.221Z,992.1
2023-01-19T05:20:45.625Z,992.1
2023-01-19T05:22:46.187Z,992.1
2023-01-19T05:25:52.684Z,992
2023-01-19T05:28:52.249Z,992
2023-01-19T05:31:45.849Z,992
2023-01-19T05:34:39.035Z,992
2023-01-19T05:36:39.026Z,992
2023-01-19T05:38:39.051Z,992
2023-01-19T05:40:52.706Z,992
2023-01-19T05:43:46.252Z,992.1
2023-01-19T05:46:46.687Z,992.1
2023-01-19T05:48:46.350Z,992.1
2023-01-19T05:51:52.621Z,992.1
2023-01-19T05:54:59.502Z,992.1
2023-01-19T05:57:46.321Z,992.2
2023-01-19T06:00:45.613Z,992.2
2023-01-19T06:03:39.053Z,992.2
2023-01-19T06:07:39.400Z,992.1
2023-01-19T06:09:45.612Z,992.1
2023-01-19T06:12:52.192Z,992.2
2023-01-19T06:14:52.511Z,992.2
2023-01-19T06:17:45.985Z,992.2
2023-01-19T06:20:45.995Z,992.3
2023-01-19T06:22:46.286Z,992.3
2023-01-19T06:25:45.831Z,992.3
2023-01-19T06:28:45.626Z,992.4
2023-01-19T06:30:45.665Z,992.4
2023-01-19T06:32:52.880Z,992.4
2023-01-19T06:35:45.753Z,992.4
2023-01-19T06:39:39.352Z,992.5
2023-01-19T06:41:39.578Z,992.4
2023-01-19T06:45:52.625Z,992.5
2023-01-19T06:48:46.357Z,992.6
2023-01-19T06:51:50.068Z,992.5
2023-01-19T06:54:46.108Z,992.5
2023-01-19T06:57:39.010Z,992.5
2023-01-19T06:59:52.716Z,992.7
2023-01-19T07:02:46.611Z,992.7
2023-01-19T07:05:39.633Z,992.7
2023-01-19T07:08:39.040Z,992.7
2023-01-19T07:11:21.695Z,992.7
2023-01-19T07:12:46.259Z,992.7
2023-01-19T07:16:39.091Z,992.7
2023-01-19T07:18:52.738Z,992.7
2023-01-19T07:21:45.732Z,992.8
2023-01-19T07:24:39.008Z,992.8
2023-01-19T07:26:39.337Z,992.8
2023-01-19T07:29:39.639Z,992.9
2023-01-19T07:32:45.630Z,992.9
2023-01-19T07:34:46.012Z,993
2023-01-19T07:37:39.027Z,993.1
2023-01-19T07:39:39.632Z,993.1
2023-01-19T07:41:39.922Z,993.1
2023-01-19T07:44:46.235Z,993.2
2023-01-19T07:47:39.695Z,993.2
2023-01-19T07:50:39.274Z,993.2
2023-01-19T07:53:39.529Z,993.3
2023-01-19T07:56:46.419Z,993.3
2023-01-19T08:00:52.459Z,993.3
2023-01-19T08:03:52.357Z,993.3
2023-01-19T08:06:39.119Z,993.3
2023-01-19T08:09:39.052Z,993.3
2023-01-19T08:12:39.361Z,993.4
2023-01-19T08:14:39.965Z,993.4
2023-01-19T08:17:39.177Z,993.4
2023-01-19T08:19:41.500Z,993.4
2023-01-19T08:22:39.826Z,993.5
2023-01-19T08:25:39.003Z,993.4
2023-01-19T08:27:39.134Z,993.4
2023-01-19T08:29:39.143Z,993.5
2023-01-19T08:32:45.616Z,993.4
2023-01-19T08:36:52.625Z,993.5
2023-01-19T08:39:45.604Z,993.4
2023-01-19T08:42:52.197Z,993.4
2023-01-19T08:45:45.610Z,993.4
2023-01-19T08:49:52.652Z,993.4
2023-01-19T08:52:45.817Z,993.4
2023-01-19T08:55:39.013Z,993.4
2023-01-19T08:59:39.897Z,993.4
2023-01-19T09:02:45.635Z,993.3
2023-01-19T09:04:46.103Z,993.4
2023-01-19T09:07:52.181Z,993.4
2023-01-19T09:10:45.742Z,993.4
2023-01-19T09:13:39.022Z,993.4
2023-01-19T09:15:39.797Z,993.4
2023-01-19T09:18:39.113Z,993.5
2023-01-19T09:21:39.059Z,993.5
2023-01-19T09:23:39.137Z,993.4
2023-01-19T09:25:45.618Z,993.5
2023-01-19T09:27:46.062Z,993.5
2023-01-19T09:30:39.690Z,993.4
2023-01-19T09:33:39.055Z,993.5
2023-01-19T09:36:53.189Z,993.5
2023-01-19T09:39:39.026Z,993.5
2023-01-19T09:41:39.179Z,993.5
2023-01-19T09:44:39.472Z,993.6
2023-01-19T09:47:39.040Z,993.6
2023-01-19T09:49:39.158Z,993.6
2023-01-19T09:52:39.509Z,993.5
2023-01-19T09:55:38.998Z,993.5
2023-01-19T09:58:39.049Z,993.5
2023-01-19T10:01:39.048Z,993.5
2023-01-19T10:04:39.170Z,993.5
2023-01-19T10:07:39.907Z,993.5
2023-01-19T10:10:39.777Z,993.6
2023-01-19T10:13:39.164Z,993.6
2023-01-19T10:15:39.457Z,993.6
2023-01-19T10:17:39.618Z,993.5
2023-01-19T10:20:39.218Z,993.5
2023-01-19T10:24:38.104Z,993.5
2023-01-19T10:26:45.929Z,993.5
2023-01-19T10:29:52.827Z,993.5
2023-01-19T10:32:45.612Z,993.5
2023-01-19T10:34:45.633Z,993.5
2023-01-19T10:36:58.782Z,993.5
2023-01-19T10:39:45.870Z,993.5
2023-01-19T10:43:39.055Z,993.4
2023-01-19T10:45:39.493Z,993.4
2023-01-19T10:47:39.900Z,993.5
2023-01-19T10:51:38.096Z,993.5
2023-01-19T10:53:45.672Z,993.5
2023-01-19T10:56:39.049Z,993.5
2023-01-19T10:59:39.024Z,993.6
2023-01-19T11:01:52.463Z,993.5
2023-01-19T11:04:39.633Z,993.5
2023-01-19T11:07:39.029Z,993.5
2023-01-19T11:09:39.028Z,993.6
2023-01-19T11:11:39.375Z,993.5
2023-01-19T11:13:46.325Z,993.6
2023-01-19T11:16:39.076Z,993.6
2023-01-19T11:18:39.150Z,993.6
2023-01-19T11:21:39.418Z,993.6
2023-01-19T11:25:45.722Z,993.6
2023-01-19T11:28:39.043Z,993.5
2023-01-19T11:30:39.075Z,993.5
2023-01-19T11:32:39.034Z,993.5
2023-01-19T11:35:39.035Z,993.5
2023-01-19T11:37:39.672Z,993.6
2023-01-19T11:41:45.614Z,993.6
2023-01-19T11:43:49.163Z,993.5
2023-01-19T11:46:47.969Z,993.5
2023-01-19T11:48:46.167Z,993.4
2023-01-19T11:52:41.222Z,993.4
2023-01-19T11:56:38.191Z,993.4
2023-01-19T11:58:45.620Z,993.4
2023-01-19T12:01:52.825Z,993.4
2023-01-19T12:04:46.119Z,993.3
2023-01-19T12:08:38.996Z,993.3
2023-01-19T12:10:39.057Z,993.3
2023-01-19T12:12:52.231Z,993.3
2023-01-19T12:16:39.368Z,993.2
2023-01-19T12:18:39.690Z,993.2
2023-01-19T12:23:45.609Z,993.2
2023-01-19T12:26:39.044Z,993.3
2023-01-19T12:28:39.616Z,993.2
2023-01-19T12:30:39.938Z,993.2
2023-01-19T12:33:39.421Z,993.1
2023-01-19T12:36:39.457Z,993
2023-01-19T12:41:46.502Z,993
2023-01-19T12:44:38.124Z,993
2023-01-19T12:46:52.861Z,993
2023-01-19T12:50:39.195Z,993
2023-01-19T12:52:39.189Z,993.1
2023-01-19T12:55:39.091Z,993
2023-01-19T12:57:39.137Z,993
2023-01-19T13:01:39.910Z,993
2023-01-19T13:04:39.027Z,993
2023-01-19T13:07:45.928Z,992.9
2023-01-19T13:10:39.195Z,992.9
2023-01-19T13:13:39.103Z,992.9
2023-01-19T13:15:39.937Z,992.9
2023-01-19T13:18:39.338Z,992.9
2023-01-19T13:21:39.055Z,992.8
2023-01-19T13:23:39.775Z,992.9
2023-01-19T13:26:39.207Z,992.9
2023-01-19T13:28:39.444Z,992.9
2023-01-19T13:30:39.575Z,992.9
2023-01-19T13:32:47.685Z,992.9
2023-01-19T13:36:40.012Z,993
2023-01-19T13:41:45.607Z,992.9
2023-01-19T13:43:45.638Z,992.9
2023-01-19T13:46:39.098Z,993
2023-01-19T13:48:39.044Z,993.1
2023-01-19T13:51:39.087Z,993.1
2023-01-19T13:53:39.585Z,993.1
2023-01-19T13:56:39.082Z,993.1
2023-01-19T13:58:39.306Z,993.1
2023-01-19T14:00:39.854Z,993.2
2023-01-19T14:03:39.030Z,993.1
2023-01-19T14:06:39.066Z,993.1
2023-01-19T14:08:39.038Z,993.2
2023-01-19T14:10:39.058Z,993.2
2023-01-19T14:13:39.819Z,993.2
2023-01-19T14:17:39.471Z,993.3
2023-01-19T14:20:39.324Z,993.3
2023-01-19T14:23:39.106Z,993.3
2023-01-19T14:25:52.179Z,993.3
2023-01-19T14:28:45.676Z,993.3
2023-01-19T14:30:52.957Z,993.3
2023-01-19T14:33:52.283Z,993.4
2023-01-19T14:36:39.260Z,993.3
2023-01-19T14:39:39.061Z,993.4
2023-01-19T14:43:39.002Z,993.3
2023-01-19T14:45:46.136Z,993.3
2023-01-19T14:49:39.502Z,993.4
2023-01-19T14:52:39.011Z,993.4
2023-01-19T14:54:44.665Z,993.4
2023-01-19T14:56:46.044Z,993.3
2023-01-19T14:58:46.487Z,993.4
2023-01-19T15:01:39.305Z,993.4
2023-01-19T15:03:45.013Z,993.4
2023-01-19T15:06:38.097Z,993.4
2023-01-19T15:08:46.023Z,993.5
2023-01-19T15:11:39.029Z,993.4
2023-01-19T15:14:39.028Z,993.4
2023-01-19T15:17:46.456Z,993.5
2023-01-19T15:20:45.840Z,993.5
2023-01-19T15:25:52.620Z,993.5
2023-01-19T15:28:52.171Z,993.5
2023-01-19T15:33:12.461Z,993.5
2023-01-19T15:35:45.631Z,993.5
2023-01-19T15:37:45.630Z,993.5
2023-01-19T15:39:46.149Z,993.5
2023-01-19T15:43:45.578Z,993.5
2023-01-19T15:45:45.679Z,993.5
2023-01-19T15:47:46.127Z,993.5
2023-01-19T15:51:52.546Z,993.6
2023-01-19T15:55:52.250Z,993.7
2023-01-19T15:58:52.756Z,993.7
2023-01-19T16:01:44.761Z,993.7
2023-01-19T16:04:39.657Z,993.8
2023-01-19T16:08:39.081Z,993.7
2023-01-19T16:12:13.648Z,993.7
2023-01-19T16:14:27.284Z,993.7
2023-01-19T16:17:11.822Z,993.7
2023-01-19T16:19:15.234Z,993.7
2023-01-19T16:21:18.658Z,993.8
2023-01-19T16:23:21.969Z,993.8
2023-01-19T16:25:25.417Z,993.8
2023-01-19T16:28:40.743Z,993.8
2023-01-19T16:30:54.488Z,993.9
2023-01-19T16:33:38.955Z,993.8
2023-01-19T16:35:42.333Z,993.8
2023-01-19T16:37:45.718Z,993.8
2023-01-19T16:39:49.181Z,993.8
2023-01-19T16:41:52.493Z,993.8
2023-01-19T16:44:47.325Z,993.8
2023-01-19T16:47:52.383Z,993.9
2023-01-19T16:50:16.379Z,993.8
2023-01-19T16:52:20.747Z,993.9
2023-01-19T16:54:53.068Z,993.8
2023-01-19T16:58:42.792Z,993.9
2023-01-19T17:01:42.868Z,993.9
2023-01-19T17:04:42.777Z,993.9
2023-01-19T17:06:53.056Z,993.9
2023-01-19T17:08:53.110Z,993.9
2023-01-19T17:12:42.812Z,994
2023-01-19T17:14:42.819Z,994
2023-01-19T17:16:53.149Z,994
2023-01-19T17:19:53.038Z,994
2023-01-19T17:23:42.781Z,994
2023-01-19T17:27:42.777Z,994
2023-01-19T17:29:42.762Z,994
2023-01-19T17:32:05.036Z,994
2023-01-19T17:34:53.082Z,994
2023-01-19T17:38:42.827Z,994.1
2023-01-19T17:41:53.049Z,994.1
2023-01-19T17:43:53.061Z,994.1
2023-01-19T17:46:53.061Z,994.1
2023-01-19T17:50:42.788Z,994.2
2023-01-19T17:52:42.824Z,994.2
2023-01-19T17:55:53.042Z,994.2
2023-01-19T17:57:53.072Z,994.2
2023-01-19T18:00:13.863Z,994.3
2023-01-19T18:02:53.173Z,994.3
2023-01-19T18:05:53.112Z,994.3
2023-01-19T18:08:42.865Z,994.3
2023-01-19T18:10:42.806Z,994.3
2023-01-19T18:13:53.055Z,994.4
2023-01-19T18:15:53.187Z,994.4
2023-01-19T18:18:42.790Z,994.4
2023-01-19T18:20:42.819Z,994.4
2023-01-19T18:22:42.828Z,994.4
2023-01-19T18:24:53.034Z,994.4
2023-01-19T18:26:55.560Z,994.4
2023-01-19T18:30:42.990Z,994.4
2023-01-19T18:34:42.783Z,994.4
2023-01-19T18:37:03.368Z,994.4
2023-01-19T18:39:53.050Z,994.4
2023-01-19T18:42:42.798Z,994.4
2023-01-19T18:45:05.128Z,994.5
2023-01-19T18:47:53.068Z,994.5
2023-01-19T18:51:03.377Z,994.5
2023-01-19T18:53:53.064Z,994.4
2023-01-19T18:56:42.924Z,994.4
2023-01-19T19:00:42.804Z,994.5
2023-01-19T19:03:42.823Z,994.5
2023-01-19T19:05:53.249Z,994.5
2023-01-19T19:08:42.795Z,994.5
2023-01-19T19:11:42.783Z,994.5
2023-01-19T19:14:53.062Z,994.5
2023-01-19T19:18:42.863Z,994.5
2023-01-19T19:22:42.822Z,994.5
2023-01-19T19:25:03.377Z,994.5
2023-01-19T19:27:03.359Z,994.6
2023-01-19T19:30:42.793Z,994.5
2023-01-19T19:32:42.825Z,994.6
2023-01-19T19:35:53.081Z,994.6
2023-01-19T19:38:42.859Z,994.6
2023-01-19T19:41:05.031Z,994.6
2023-01-19T19:43:53.054Z,994.6
2023-01-19T19:46:05.091Z,994.6
2023-01-19T19:48:53.033Z,994.6
2023-01-19T19:51:42.786Z,994.6
2023-01-19T19:54:42.792Z,994.6
2023-01-19T19:57:54.077Z,994.6
2023-01-19T20:00:53.131Z,994.6
2023-01-19T20:03:42.789Z,994.6
2023-01-19T20:06:42.798Z,994.7
2023-01-19T20:08:53.051Z,994.7
2023-01-19T20:10:53.050Z,994.7
2023-01-19T20:13:42.805Z,994.7
2023-01-19T20:16:42.779Z,994.7
2023-01-19T20:18:42.757Z,994.7
2023-01-19T20:20:42.845Z,994.7
2023-01-19T20:24:42.810Z,994.7
2023-01-19T20:28:42.801Z,994.7
2023-01-19T20:32:42.811Z,994.7
2023-01-19T20:34:53.039Z,994.7
2023-01-19T20:36:53.073Z,994.7
2023-01-19T20:39:42.791Z,994.7
2023-01-19T20:41:42.804Z,994.7
2023-01-19T20:43:53.062Z,994.7
2023-01-19T20:45:53.166Z,994.7
2023-01-19T20:48:42.782Z,994.7
2023-01-19T20:51:42.789Z,994.7
2023-01-19T20:53:53.059Z,994.8
2023-01-19T20:56:42.819Z,994.8
2023-01-19T20:59:42.764Z,994.8
2023-01-19T21:01:43.025Z,994.8
2023-01-19T21:04:53.077Z,994.8
2023-01-19T21:06:53.060Z,994.9
2023-01-19T21:09:42.792Z,994.9
2023-01-19T21:11:42.763Z,994.9
2023-01-19T21:14:42.818Z,994.9
2023-01-19T21:17:45.013Z,995
2023-01-19T21:20:42.781Z,995
2023-01-19T21:23:36.751Z,995.1
2023-01-19T21:26:42.752Z,995.1
2023-01-19T21:28:53.135Z,995.1
2023-01-19T21:31:53.093Z,995.1
2023-01-19T21:35:42.781Z,995.2
2023-01-19T21:38:53.079Z,995.2
2023-01-19T21:40:53.143Z,995.1
2023-01-19T21:43:42.771Z,995.2
2023-01-19T21:46:42.784Z,995.2
2023-01-19T21:48:53.267Z,995.2
2023-01-19T21:51:42.799Z,995.2
2023-01-19T21:55:42.802Z,995.4
2023-01-19T21:57:53.074Z,995.4
2023-01-19T21:59:53.052Z,995.4
2023-01-19T22:02:03.501Z,995.4
2023-01-19T22:04:53.068Z,995.4
2023-01-19T22:06:53.109Z,995.4
2023-01-19T22:09:42.737Z,995.5
2023-01-19T22:11:42.774Z,995.5
2023-01-19T22:13:42.793Z,995.5
2023-01-19T22:15:53.157Z,995.5
2023-01-19T22:18:42.808Z,995.5
2023-01-19T22:21:42.760Z,995.5
2023-01-19T22:24:42.771Z,995.6
2023-01-19T22:26:53.098Z,995.6
2023-01-19T22:29:42.774Z,995.6
2023-01-19T22:31:42.837Z,995.7
2023-01-19T22:33:42.798Z,995.6
2023-01-19T22:36:42.768Z,995.7
2023-01-19T22:39:42.790Z,995.7
2023-01-19T22:41:42.817Z,995.6
2023-01-19T22:44:42.867Z,995.6
2023-01-19T22:47:53.029Z,995.6
2023-01-19T22:49:53.023Z,995.6
2023-01-19T22:52:42.744Z,995.7
2023-01-19T22:54:42.796Z,995.6
2023-01-19T22:56:42.797Z,995.6
2023-01-19T22:58:53.017Z,995.6
2023-01-19T23:01:42.929Z,995.5
2023-01-19T23:04:42.776Z,995.6
2023-01-19T23:07:42.805Z,995.6
2023-01-19T23:09:53.030Z,995.6
2023-01-19T23:13:42.785Z,995.6
2023-01-19T23:16:42.790Z,995.7
2023-01-19T23:18:53.116Z,995.7
2023-01-19T23:22:03.351Z,995.7
2023-01-19T23:24:53.047Z,995.8
2023-01-19T23:28:03.416Z,995.9
2023-01-19T23:30:53.112Z,995.8
2023-01-19T23:33:42.805Z,995.9
2023-01-19T23:36:42.858Z,995.9
2023-01-19T23:39:53.054Z,995.9
2023-01-19T23:43:42.791Z,996
2023-01-19T23:46:05.067Z,995.9
2023-01-19T23:48:53.077Z,996
2023-01-19T23:51:42.781Z,995.9
2023-01-19T23:53:42.780Z,996
2023-01-19T23:55:42.847Z,996
2023-01-19T23:58:42.757Z,996
